Historyczne dane pomiarowe

Dodano dane terminowe – wersja testowa.

Dane z okresu 1951-2019

Wersja bazy: 1.34 [2019-03-16, lista zmian], aktualizacja planowana na 2019-04-15

Dane meteo z obszaru Polski uzyskane na podstawie danych udostępnionych przez Instytut Meteorologii i Gospodarki Wodnej – Państwowy Instytut Badawczy.

 

Wybierz Datę:    

       

TemperaturaWilgotnośćZachmurzenieWiatrCiśnienieWidzialnośćZjawiska
 Data    tng td wb rh cc ccl cl cm ch dir g1 g2 mslp ppp      
1999-07-29 00:00:00 15.5--- 12.8 13.984wxwx3wx--1019.1 994.6 0.0---wx
1999-07-29 01:00:00 14.3--- 12.1 13.086wxwx1wx--1019.4 994.8----wx
1999-07-29 02:00:00 13.3--- 11.2 12.187wxwx2wx--1019.5 994.8----wx
1999-07-29 03:00:00 13.5--- 11.2 12.286wxwx3wx--1019.8 995.1----wx
1999-07-29 04:00:00 13.9--- 12.5 13.191wxwx3wx--1020.1 995.4----wx
1999-07-29 05:00:00 15.1--- 13.1 13.988wxwx2wx--1020.3 995.7----wx
1999-07-29 06:00:00 15.8--- 13.6 14.587wxwx2wx--1020.3 995.8 0.0---wx
1999-07-29 07:00:00 18.2--- 13.8 15.575wxwx3wx--1020.0 995.7----wx
1999-07-29 08:00:00 21.6--- 12.5 16.156wxwxwx3wx--1019.3 995.3----wx
1999-07-29 09:00:00 23.2--- 9.1 15.141wxwxwx5wx--1019.1 995.2----wx
1999-07-29 10:00:00 23.8--- 8.6 15.138wxwxwx5wx--1018.7 994.9----wx
1999-07-29 11:00:00 22.9--- 7.5 14.337wxwxwx5wx--1018.8 994.9----wx
1999-07-29 12:00:00 23.2--- 7.0 14.235wxwxwxwx5wx--1018.4 994.5 0.0---wx
1999-07-29 13:00:00 23.9--- 7.5 14.735wxwxwx4wx--1018.1 994.3----wx
1999-07-29 14:00:00 24.3--- 8.1 15.136wxwxwx4wx--1017.7 993.9----wx
1999-07-29 15:00:00 23.8--- 7.6 14.735wxwxwx4wx--1017.6 993.8----wx
1999-07-29 16:00:00 24.0--- 7.9 14.936wxwxwx2wx--1017.3 993.5----wx
1999-07-29 17:00:00 23.6--- 7.3 14.535wxwxwx5wx--1017.2 993.4----wx
1999-07-29 18:00:00 22.2--- 8.9 14.643wxwxwxwx4wx--1017.4 993.5 0.0---wx
1999-07-29 19:00:00 20.2--- 9.3 14.049wxwxwx2wx--1018.2 994.1----wx
1999-07-29 20:00:00 17.4--- 10.0 13.262wxwxwx2wx--1018.6 994.3----wx
1999-07-29 21:00:00 15.6--- 10.3 12.671wxwxwx2wx--1018.9 994.4----wx
1999-07-29 22:00:00 15.6--- 10.3 12.671wxwxwx3wx--1018.8 994.3----wx
1999-07-29 23:00:00 15.1--- 9.5 12.069wxwxwx2wx--1018.6 994.1----wx

 

Źródłem pochodzenia danych jest Instytut Meteorologii i Gospodarki Wodnej – Państwowy Instytut Badawczy. Dane Instytutu Meteorologii i Gospodarki Wodnej – Państwowego Instytutu Badawczego zostały przetworzone.

Dane źródłowe można odnaleźć na stronie https://dane.imgw.pl